createdAt,value
2023-12-09T00:00:11.163Z,1.10
2023-12-09T00:01:12.055Z,1.10
2023-12-09T00:02:12.523Z,1.10
2023-12-09T00:03:13.479Z,2.00
2023-12-09T00:04:14.478Z,3.30
2023-12-09T00:05:15.028Z,1.60
2023-12-09T00:06:16.073Z,2.10
2023-12-09T00:07:16.580Z,2.70
2023-12-09T00:08:17.490Z,1.20
2023-12-09T00:09:18.397Z,1.30
2023-12-09T00:10:19.345Z,2.50
2023-12-09T00:11:20.222Z,3.00
2023-12-09T00:12:21.159Z,1.20
2023-12-09T00:13:22.000Z,1.60
2023-12-09T00:14:22.872Z,1.50
2023-12-09T00:15:23.844Z,1.30
2023-12-09T00:16:24.685Z,7.10
2023-12-09T00:17:25.568Z,2.50
2023-12-09T00:18:26.548Z,2.00
2023-12-09T00:19:27.535Z,1.90
2023-12-09T00:20:28.004Z,2.90
2023-12-09T00:21:28.910Z,4.40
2023-12-09T00:22:30.271Z,2.80
2023-12-09T00:23:30.374Z,1.90
2023-12-09T00:24:31.304Z,1.40
2023-12-09T00:25:32.163Z,2.40
2023-12-09T00:26:33.048Z,2.30
2023-12-09T00:27:33.999Z,1.00
2023-12-09T00:28:34.839Z,1.60
2023-12-09T00:29:35.740Z,1.50
2023-12-09T00:30:36.659Z,1.10
2023-12-09T00:31:37.496Z,1.70
2023-12-09T00:32:38.422Z,8.70
2023-12-09T00:33:39.395Z,7.00
2023-12-09T00:34:39.820Z,7.20
2023-12-09T00:35:40.715Z,7.90
2023-12-09T00:36:41.559Z,6.30
2023-12-09T00:37:42.457Z,4.90
2023-12-09T00:38:43.321Z,1.40
2023-12-09T00:39:44.201Z,1.30
2023-12-09T00:40:45.090Z,1.10
2023-12-09T00:41:45.951Z,1.20
2023-12-09T00:42:46.851Z,1.10
2023-12-09T00:43:47.714Z,1.30
2023-12-09T00:44:48.597Z,1.10
2023-12-09T00:45:49.468Z,1.50
2023-12-09T00:46:50.358Z,0.80
2023-12-09T00:47:51.353Z,1.50
2023-12-09T00:48:51.978Z,1.70
2023-12-09T00:49:52.505Z,1.50
2023-12-09T00:50:53.417Z,1.80
2023-12-09T00:51:54.264Z,1.40
2023-12-09T00:52:55.153Z,1.90
2023-12-09T00:53:56.128Z,1.40
2023-12-09T00:54:56.982Z,1.80
2023-12-09T00:55:57.887Z,1.90
2023-12-09T00:56:58.798Z,2.30
2023-12-09T00:57:59.677Z,1.50
2023-12-09T00:59:00.535Z,2.60
2023-12-09T01:00:01.432Z,1.20
2023-12-09T01:01:02.337Z,2.50
2023-12-09T01:02:03.192Z,2.80
2023-12-09T01:03:04.204Z,2.10
2023-12-09T01:04:04.968Z,2.10
2023-12-09T01:05:05.634Z,1.90
2023-12-09T01:06:06.518Z,1.80
2023-12-09T01:07:07.362Z,1.70
2023-12-09T01:08:08.244Z,1.90
2023-12-09T01:09:09.176Z,2.00
2023-12-09T01:10:10.006Z,2.10
2023-12-09T01:11:10.889Z,2.30
2023-12-09T01:12:11.837Z,2.30
2023-12-09T01:13:12.709Z,2.30
2023-12-09T01:14:13.544Z,2.00
2023-12-09T01:15:14.439Z,2.80
2023-12-09T01:16:15.312Z,2.70
2023-12-09T01:17:16.211Z,2.80
2023-12-09T01:18:17.127Z,3.80
2023-12-09T01:19:18.023Z,2.80
2023-12-09T01:20:18.874Z,3.10
2023-12-09T01:21:19.839Z,2.40
2023-12-09T01:22:20.710Z,2.70
2023-12-09T01:23:21.600Z,2.30
2023-12-09T01:24:22.502Z,1.90
2023-12-09T01:25:23.347Z,2.30
2023-12-09T01:26:24.239Z,2.20
2023-12-09T01:27:25.216Z,1.90
2023-12-09T01:28:26.099Z,1.80
2023-12-09T01:29:26.966Z,2.90
2023-12-09T01:30:27.879Z,1.50
2023-12-09T01:31:28.762Z,1.30
2023-12-09T01:32:29.925Z,1.30
2023-12-09T01:33:30.594Z,1.30
2023-12-09T01:34:31.032Z,1.30
2023-12-09T01:35:31.943Z,1.30
2023-12-09T01:36:32.876Z,2.40
2023-12-09T01:37:33.742Z,3.50
2023-12-09T01:38:34.623Z,1.80
2023-12-09T01:39:35.526Z,1.60
2023-12-09T01:40:36.393Z,2.00
2023-12-09T01:41:37.289Z,1.50
2023-12-09T01:42:38.267Z,2.10
2023-12-09T01:43:39.130Z,30.80
2023-12-09T01:44:40.011Z,10.50
2023-12-09T01:45:40.881Z,4.10
2023-12-09T01:46:41.761Z,3.70
2023-12-09T01:47:42.676Z,2.70
2023-12-09T01:48:43.675Z,3.60
2023-12-09T01:49:44.177Z,3.90
2023-12-09T01:50:45.159Z,3.40
2023-12-09T01:51:46.020Z,3.90
2023-12-09T01:52:46.928Z,3.10
2023-12-09T01:53:47.794Z,3.10
2023-12-09T01:54:48.677Z,3.50
2023-12-09T01:55:49.546Z,1.90
2023-12-09T01:56:50.462Z,2.60
2023-12-09T01:57:51.296Z,2.80
2023-12-09T01:58:52.213Z,2.70
2023-12-09T01:59:53.128Z,2.70
2023-12-09T02:00:54.021Z,2.70
2023-12-09T02:01:54.884Z,2.70
2023-12-09T02:02:55.944Z,2.60
2023-12-09T02:03:56.446Z,3.20
2023-12-09T02:04:57.320Z,2.60
2023-12-09T02:05:58.272Z,3.10
2023-12-09T02:06:59.112Z,3.30
2023-12-09T02:07:59.978Z,3.10
2023-12-09T02:09:00.940Z,3.10
2023-12-09T02:10:01.795Z,3.00
2023-12-09T02:11:02.676Z,2.50
2023-12-09T02:12:03.581Z,2.40
2023-12-09T02:13:04.452Z,2.60
2023-12-09T02:14:05.352Z,2.10
2023-12-09T02:15:06.241Z,2.40
2023-12-09T02:16:07.084Z,2.80
2023-12-09T02:17:07.966Z,2.60
2023-12-09T02:18:08.968Z,3.20
2023-12-09T02:19:09.444Z,2.50
2023-12-09T02:20:10.313Z,2.50
2023-12-09T02:21:11.200Z,2.70
2023-12-09T02:22:12.135Z,2.50
2023-12-09T02:23:12.976Z,4.10
2023-12-09T02:24:13.883Z,4.70
2023-12-09T02:25:14.727Z,2.80
2023-12-09T02:26:15.597Z,2.50
2023-12-09T02:27:16.533Z,2.70
2023-12-09T02:28:17.369Z,2.90
2023-12-09T02:29:18.274Z,3.00
2023-12-09T02:30:19.201Z,3.20
2023-12-09T02:31:20.042Z,2.10
2023-12-09T02:32:20.936Z,2.60
2023-12-09T02:33:21.974Z,2.60
2023-12-09T02:34:22.558Z,3.20
2023-12-09T02:35:22.933Z,3.30
2023-12-09T02:36:23.836Z,3.00
2023-12-09T02:37:24.703Z,3.30
2023-12-09T02:38:25.575Z,2.60
2023-12-09T02:39:26.522Z,3.30
2023-12-09T02:40:27.360Z,3.80
2023-12-09T02:41:28.245Z,2.70
2023-12-09T02:42:29.488Z,4.20
2023-12-09T02:43:29.923Z,4.50
2023-12-09T02:44:30.814Z,4.90
2023-12-09T02:45:31.750Z,3.90
2023-12-09T02:46:32.632Z,3.60
2023-12-09T02:47:33.558Z,4.90
2023-12-09T02:48:34.502Z,4.70
2023-12-09T02:49:35.100Z,4.30
2023-12-09T02:50:35.534Z,4.10
2023-12-09T02:51:36.463Z,4.60
2023-12-09T02:52:37.308Z,4.40
2023-12-09T02:53:38.186Z,3.90
2023-12-09T02:54:39.088Z,4.50
2023-12-09T02:55:39.972Z,4.20
2023-12-09T02:56:40.855Z,4.30
2023-12-09T02:57:41.737Z,4.70
2023-12-09T02:58:42.617Z,4.20
2023-12-09T02:59:43.544Z,4.40
2023-12-09T03:00:44.551Z,3.80
2023-12-09T03:01:44.908Z,6.30
2023-12-09T03:02:45.794Z,4.90
2023-12-09T03:03:46.783Z,4.20
2023-12-09T03:04:47.709Z,4.00
2023-12-09T03:05:48.639Z,5.50
2023-12-09T03:06:49.472Z,4.80
2023-12-09T03:07:50.353Z,4.30
2023-12-09T03:08:51.245Z,3.70
2023-12-09T03:09:52.119Z,3.50
2023-12-09T03:10:52.997Z,4.30
2023-12-09T03:11:53.888Z,3.00
2023-12-09T03:12:54.776Z,3.40
2023-12-09T03:13:55.640Z,3.90
2023-12-09T03:14:56.639Z,4.20
2023-12-09T03:15:57.491Z,3.80
2023-12-09T03:16:58.403Z,3.90
2023-12-09T03:17:59.352Z,3.40
2023-12-09T03:19:00.386Z,3.00
2023-12-09T03:20:00.761Z,3.40
2023-12-09T03:21:01.645Z,3.10
2023-12-09T03:22:02.521Z,2.70
2023-12-09T03:23:03.385Z,3.70
2023-12-09T03:24:04.307Z,3.70
2023-12-09T03:25:05.166Z,3.20
2023-12-09T03:26:06.033Z,3.10
2023-12-09T03:27:06.922Z,2.80
2023-12-09T03:28:07.803Z,2.80
2023-12-09T03:29:08.684Z,3.00
2023-12-09T03:30:09.686Z,2.90
2023-12-09T03:31:10.085Z,2.30
2023-12-09T03:32:10.960Z,2.50
2023-12-09T03:33:12.052Z,2.20
2023-12-09T03:34:12.497Z,2.10
2023-12-09T03:35:13.376Z,2.30
2023-12-09T03:36:14.256Z,1.30
2023-12-09T03:37:15.125Z,1.70
2023-12-09T03:38:15.999Z,1.90
2023-12-09T03:39:16.974Z,2.20
2023-12-09T03:40:17.821Z,1.80
2023-12-09T03:41:18.701Z,1.60
2023-12-09T03:42:19.608Z,2.50
2023-12-09T03:43:20.535Z,4.00
2023-12-09T03:44:20.985Z,7.80
2023-12-09T03:45:21.981Z,4.50
2023-12-09T03:46:22.827Z,4.10
2023-12-09T03:47:29.211Z,4.20
2023-12-09T03:48:25.665Z,2.70
2023-12-09T03:49:25.119Z,3.50
2023-12-09T03:50:25.980Z,3.60
2023-12-09T03:51:26.870Z,2.30
2023-12-09T03:52:27.940Z,3.00
2023-12-09T03:53:28.434Z,2.90
2023-12-09T03:54:29.380Z,2.90
2023-12-09T03:55:30.216Z,3.60
2023-12-09T03:56:31.089Z,2.60
2023-12-09T03:57:32.078Z,2.60
2023-12-09T03:58:32.502Z,1.80
2023-12-09T03:59:33.351Z,1.70
2023-12-09T04:00:34.298Z,2.40
2023-12-09T04:01:35.253Z,2.60
2023-12-09T04:02:36.096Z,2.10
2023-12-09T04:03:37.111Z,2.50
2023-12-09T04:04:37.491Z,2.70
2023-12-09T04:05:38.440Z,1.90
2023-12-09T04:06:39.348Z,2.80
2023-12-09T04:07:40.211Z,2.80
2023-12-09T04:08:41.073Z,2.80
2023-12-09T04:09:41.955Z,2.30
2023-12-09T04:10:42.853Z,3.60
2023-12-09T04:11:43.744Z,3.20
2023-12-09T04:12:44.693Z,2.90
2023-12-09T04:13:45.551Z,3.30
2023-12-09T04:14:46.428Z,2.70
2023-12-09T04:15:47.328Z,2.70
2023-12-09T04:16:48.189Z,2.60
2023-12-09T04:17:49.270Z,2.50
2023-12-09T04:18:49.875Z,3.40
2023-12-09T04:19:50.477Z,4.60
2023-12-09T04:20:50.928Z,3.70
2023-12-09T04:21:51.808Z,6.30
2023-12-09T04:22:52.692Z,4.40
2023-12-09T04:23:53.578Z,4.70
2023-12-09T04:24:54.478Z,5.30
2023-12-09T04:25:55.375Z,5.30
2023-12-09T04:26:56.300Z,4.70
2023-12-09T04:27:57.152Z,4.30
2023-12-09T04:28:58.030Z,5.90
2023-12-09T04:29:58.948Z,4.30
2023-12-09T04:30:59.820Z,5.60
2023-12-09T04:32:00.692Z,5.40
2023-12-09T04:33:01.623Z,6.30
2023-12-09T04:34:02.648Z,5.30
2023-12-09T04:35:03.025Z,5.30
2023-12-09T04:36:03.988Z,5.80
2023-12-09T04:37:04.858Z,4.90
2023-12-09T04:38:05.757Z,7.80
2023-12-09T04:39:06.792Z,4.30
2023-12-09T04:40:07.204Z,6.30
2023-12-09T04:41:08.091Z,5.40
2023-12-09T04:42:09.032Z,4.40
2023-12-09T04:43:09.894Z,4.90
2023-12-09T04:44:10.835Z,5.50
2023-12-09T04:45:11.710Z,5.60
2023-12-09T04:46:12.582Z,3.80
2023-12-09T04:47:13.447Z,4.10
2023-12-09T04:48:14.409Z,3.90
2023-12-09T04:49:15.392Z,4.00
2023-12-09T04:50:15.797Z,3.80
2023-12-09T04:51:16.698Z,3.40
2023-12-09T04:52:17.575Z,3.60
2023-12-09T04:53:18.483Z,3.70
2023-12-09T04:54:19.408Z,4.00
2023-12-09T04:55:20.272Z,4.90
2023-12-09T04:56:21.184Z,3.30
2023-12-09T04:57:22.087Z,3.90
2023-12-09T04:58:22.955Z,3.50
2023-12-09T04:59:23.870Z,2.60
2023-12-09T05:00:24.862Z,3.00
2023-12-09T05:01:25.764Z,3.40
2023-12-09T05:02:26.865Z,3.70
2023-12-09T05:03:27.403Z,4.70
2023-12-09T05:04:28.316Z,3.50
2023-12-09T05:05:29.216Z,3.00
2023-12-09T05:06:30.122Z,3.20
2023-12-09T05:07:30.970Z,3.10
2023-12-09T05:08:31.862Z,4.10
2023-12-09T05:09:32.783Z,13.60
2023-12-09T05:10:33.638Z,7.80
2023-12-09T05:11:34.516Z,112.00
2023-12-09T05:12:35.449Z,121.70
2023-12-09T05:13:36.295Z,96.10
2023-12-09T05:14:37.181Z,95.30
2023-12-09T05:15:38.106Z,150.10
2023-12-09T05:16:38.988Z,18.00
2023-12-09T05:17:39.920Z,37.20
2023-12-09T05:18:40.897Z,56.30
2023-12-09T05:19:42.210Z,12.40
2023-12-09T05:20:42.578Z,5.40
2023-12-09T05:21:43.496Z,24.60
2023-12-09T05:22:44.353Z,3.40
2023-12-09T05:23:45.228Z,3.70
2023-12-09T05:24:46.107Z,6.50
2023-12-09T05:25:46.978Z,5.30
2023-12-09T05:26:47.855Z,7.70
2023-12-09T05:27:48.775Z,5.10
2023-12-09T05:28:49.620Z,3.50
2023-12-09T05:29:50.501Z,3.60
2023-12-09T05:30:51.378Z,4.20
2023-12-09T05:31:52.275Z,2.90
2023-12-09T05:32:53.349Z,3.30
2023-12-09T05:33:53.875Z,4.30
2023-12-09T05:34:54.307Z,3.70
2023-12-09T05:35:55.200Z,6.30
2023-12-09T05:36:56.077Z,8.10
2023-12-09T05:37:57.021Z,25.90
2023-12-09T05:38:57.893Z,126.30
2023-12-09T05:39:58.758Z,147.70
2023-12-09T05:40:59.633Z,142.20
2023-12-09T05:42:00.626Z,132.00
2023-12-09T05:43:00.991Z,15.10
2023-12-09T05:44:01.880Z,8.70
2023-12-09T05:45:02.773Z,4.60
2023-12-09T05:46:05.574Z,6.00
2023-12-09T05:47:04.546Z,10.00
2023-12-09T05:48:05.518Z,10.40
2023-12-09T05:49:06.040Z,10.60
2023-12-09T05:50:06.385Z,6.20
2023-12-09T05:51:07.289Z,17.10
2023-12-09T05:52:08.180Z,3.50
2023-12-09T05:53:09.060Z,2.60
2023-12-09T05:54:09.976Z,2.80
2023-12-09T05:55:10.830Z,3.20
2023-12-09T05:56:11.687Z,3.20
2023-12-09T05:57:12.593Z,3.70
2023-12-09T05:58:13.473Z,5.40
2023-12-09T05:59:14.344Z,7.80
2023-12-09T06:00:15.315Z,6.90
2023-12-09T06:01:16.181Z,10.20
2023-12-09T06:02:17.064Z,20.40
2023-12-09T06:03:17.776Z,6.30
2023-12-09T06:04:18.713Z,8.90
2023-12-09T06:05:19.571Z,10.70
2023-12-09T06:06:20.668Z,5.80
2023-12-09T06:07:21.062Z,5.40
2023-12-09T06:08:21.943Z,8.20
2023-12-09T06:09:22.845Z,14.80
2023-12-09T06:10:23.713Z,8.20
2023-12-09T06:11:24.586Z,10.70
2023-12-09T06:12:25.737Z,15.30
2023-12-09T06:13:26.210Z,12.60
2023-12-09T06:14:27.100Z,3.20
2023-12-09T06:15:28.059Z,14.90
2023-12-09T06:16:28.929Z,17.00
2023-12-09T06:17:29.858Z,20.30
2023-12-09T06:18:30.797Z,7.50
2023-12-09T06:19:31.674Z,22.70
2023-12-09T06:20:32.581Z,20.10
2023-12-09T06:21:33.512Z,16.60
2023-12-09T06:22:34.389Z,14.00
2023-12-09T06:23:35.275Z,12.50
2023-12-09T06:24:36.166Z,21.90
2023-12-09T06:25:37.021Z,47.10
2023-12-09T06:26:37.847Z,27.20
2023-12-09T06:27:38.731Z,19.50
2023-12-09T06:28:39.558Z,13.40
2023-12-09T06:29:40.404Z,11.70
2023-12-09T06:30:41.323Z,12.10
2023-12-09T06:31:42.163Z,15.30
2023-12-09T06:32:43.056Z,9.30
2023-12-09T06:33:44.219Z,24.50
2023-12-09T06:34:44.714Z,11.90
2023-12-09T06:35:45.128Z,11.00
2023-12-09T06:36:45.956Z,18.10
2023-12-09T06:37:46.805Z,13.80
2023-12-09T06:38:47.605Z,13.00
2023-12-09T06:39:48.460Z,15.80
2023-12-09T06:40:49.355Z,19.40
2023-12-09T06:41:50.163Z,16.50
2023-12-09T06:42:50.980Z,47.70
2023-12-09T06:43:51.825Z,79.30
2023-12-09T06:44:52.655Z,35.60
2023-12-09T06:45:53.473Z,18.50
2023-12-09T06:46:54.310Z,13.40
2023-12-09T06:47:55.603Z,13.50
2023-12-09T06:48:55.953Z,17.90
2023-12-09T06:49:56.389Z,19.10
2023-12-09T06:50:57.227Z,29.40
2023-12-09T06:51:58.029Z,49.50
2023-12-09T06:52:58.847Z,34.60
2023-12-09T06:53:59.723Z,30.80
2023-12-09T06:55:00.526Z,20.10
2023-12-09T06:56:01.375Z,40.90
2023-12-09T06:57:02.218Z,27.40
2023-12-09T06:58:03.027Z,23.60
2023-12-09T06:59:03.834Z,23.20
2023-12-09T07:00:04.674Z,35.70
2023-12-09T07:01:05.517Z,21.70
2023-12-09T07:02:06.321Z,18.70
2023-12-09T07:03:07.214Z,12.50
2023-12-09T07:04:08.108Z,13.10
2023-12-09T07:05:08.984Z,14.70
2023-12-09T07:06:09.795Z,13.20
2023-12-09T07:07:18.297Z,20.20
2023-12-09T07:08:12.390Z,16.60
2023-12-09T07:09:12.240Z,19.00
2023-12-09T07:10:13.037Z,14.00
2023-12-09T07:11:13.847Z,15.70
2023-12-09T07:12:14.723Z,19.00
2023-12-09T07:13:15.517Z,14.00
2023-12-09T07:14:16.587Z,10.00
2023-12-09T07:15:17.187Z,6.90
2023-12-09T07:16:17.504Z,8.90
2023-12-09T07:17:18.336Z,7.60
2023-12-09T07:18:20.330Z,8.20
2023-12-09T07:19:19.910Z,39.20
2023-12-09T07:20:20.724Z,19.70
2023-12-09T07:21:21.549Z,23.20
2023-12-09T07:22:22.375Z,38.60
2023-12-09T07:23:23.195Z,34.60
2023-12-09T07:24:24.039Z,19.80
2023-12-09T07:25:24.881Z,23.20
2023-12-09T07:26:25.721Z,20.70
2023-12-09T07:27:26.601Z,24.50
2023-12-09T07:28:27.395Z,18.70
2023-12-09T07:29:29.735Z,15.10
2023-12-09T07:30:28.903Z,14.30
2023-12-09T07:31:29.706Z,19.90
2023-12-09T07:32:30.868Z,10.70
2023-12-09T07:33:31.496Z,14.50
2023-12-09T07:34:31.952Z,18.20
2023-12-09T07:35:32.762Z,21.90
2023-12-09T07:36:33.669Z,39.80
2023-12-09T07:37:34.478Z,54.10
2023-12-09T07:38:35.303Z,25.10
2023-12-09T07:39:36.215Z,37.90
2023-12-09T07:40:37.068Z,58.20
2023-12-09T07:41:37.892Z,48.90
2023-12-09T07:42:38.737Z,9.80
2023-12-09T07:43:41.031Z,14.30
2023-12-09T07:44:40.483Z,13.90
2023-12-09T07:45:41.372Z,8.50
2023-12-09T07:46:42.174Z,6.00
2023-12-09T07:47:43.014Z,11.20
2023-12-09T07:48:43.936Z,13.00
2023-12-09T07:49:44.375Z,20.80
2023-12-09T07:50:45.200Z,44.90
2023-12-09T07:51:46.026Z,31.60
2023-12-09T07:52:46.849Z,14.60
2023-12-09T07:53:47.676Z,9.10
2023-12-09T07:54:48.553Z,12.30
2023-12-09T07:55:49.360Z,10.80
2023-12-09T07:56:50.228Z,9.20
2023-12-09T07:57:51.029Z,7.30
2023-12-09T07:58:51.851Z,6.40
2023-12-09T07:59:52.688Z,6.30
2023-12-09T08:00:53.563Z,4.80
2023-12-09T08:01:54.385Z,7.20
2023-12-09T08:02:55.241Z,6.30
2023-12-09T08:03:56.090Z,6.70
2023-12-09T08:04:56.974Z,4.90
2023-12-09T08:05:57.879Z,6.80
2023-12-09T08:06:58.691Z,5.30
2023-12-09T08:07:59.515Z,3.90
2023-12-09T08:09:00.439Z,3.90
2023-12-09T08:10:01.243Z,3.60
2023-12-09T08:11:02.065Z,4.40
2023-12-09T08:12:02.902Z,4.50
2023-12-09T08:13:03.730Z,4.20
2023-12-09T08:14:04.584Z,4.20
2023-12-09T08:15:05.470Z,3.80
2023-12-09T08:16:06.255Z,4.80
2023-12-09T08:17:07.091Z,4.10
2023-12-09T08:18:08.067Z,3.90
2023-12-09T08:19:08.571Z,4.50
2023-12-09T08:20:09.411Z,3.70
2023-12-09T08:21:10.242Z,4.70
2023-12-09T08:22:11.059Z,4.00
2023-12-09T08:23:11.875Z,2.80
2023-12-09T08:24:12.738Z,3.00
2023-12-09T08:25:13.532Z,4.40
2023-12-09T08:26:14.376Z,3.30
2023-12-09T08:27:15.225Z,3.00
2023-12-09T08:28:16.040Z,3.80
2023-12-09T08:29:16.856Z,3.60
2023-12-09T08:30:17.727Z,3.60
2023-12-09T08:31:18.572Z,6.10
2023-12-09T08:32:19.401Z,6.50
2023-12-09T08:33:20.424Z,4.70
2023-12-09T08:34:20.818Z,4.30
2023-12-09T08:35:21.647Z,3.90
2023-12-09T08:36:22.467Z,3.20
2023-12-09T08:37:23.317Z,4.50
2023-12-09T08:38:24.153Z,4.20
2023-12-09T08:39:25.005Z,3.40
2023-12-09T08:40:25.833Z,5.60
2023-12-09T08:41:29.329Z,4.10
2023-12-09T08:42:27.717Z,4.90
2023-12-09T08:43:28.199Z,5.80
2023-12-09T08:44:29.001Z,4.70
2023-12-09T08:45:29.883Z,14.00
2023-12-09T08:46:30.695Z,8.50
2023-12-09T08:47:31.559Z,8.00
2023-12-09T08:48:32.189Z,8.20
2023-12-09T08:49:33.106Z,4.70
2023-12-09T08:50:34.016Z,9.40
2023-12-09T08:51:34.933Z,5.30
2023-12-09T08:52:35.768Z,5.00
2023-12-09T08:53:36.605Z,4.70
2023-12-09T08:54:37.427Z,4.00
2023-12-09T08:55:38.242Z,4.60
2023-12-09T08:56:39.135Z,5.20
2023-12-09T08:57:40.060Z,6.30
2023-12-09T08:58:40.882Z,7.40
2023-12-09T08:59:41.691Z,8.70
2023-12-09T09:00:42.677Z,9.80
2023-12-09T09:01:43.584Z,12.40
2023-12-09T09:02:44.393Z,12.20
2023-12-09T09:03:45.280Z,16.30
2023-12-09T09:04:46.096Z,15.50
2023-12-09T09:05:47.063Z,12.60
2023-12-09T09:06:47.914Z,17.00
2023-12-09T09:07:48.730Z,13.60
2023-12-09T09:08:49.539Z,11.60
2023-12-09T09:09:50.376Z,9.70
2023-12-09T09:10:51.211Z,10.60
2023-12-09T09:11:52.042Z,8.70
2023-12-09T09:12:52.893Z,10.20
2023-12-09T09:13:53.718Z,16.30
2023-12-09T09:14:54.544Z,128.80
2023-12-09T09:15:55.463Z,21.10
2023-12-09T09:16:56.344Z,6.40
2023-12-09T09:17:57.181Z,10.10
2023-12-09T09:18:58.149Z,20.70
2023-12-09T09:19:58.590Z,13.70
2023-12-09T09:20:59.399Z,6.20
2023-12-09T09:22:00.222Z,6.80
2023-12-09T09:23:01.011Z,6.10
2023-12-09T09:24:01.868Z,5.20
2023-12-09T09:25:02.875Z,7.50
2023-12-09T09:26:03.225Z,5.60
2023-12-09T09:27:04.084Z,6.00
2023-12-09T09:28:04.888Z,6.00
2023-12-09T09:29:05.790Z,5.90
2023-12-09T09:30:06.698Z,4.50
2023-12-09T09:31:07.556Z,6.80
2023-12-09T09:32:08.370Z,4.60
2023-12-09T09:33:09.369Z,7.70
2023-12-09T09:34:10.330Z,4.20
2023-12-09T09:35:10.760Z,4.20
2023-12-09T09:36:11.600Z,5.90
2023-12-09T09:37:12.413Z,5.90
2023-12-09T09:38:13.362Z,6.20
2023-12-09T09:39:14.262Z,6.50
2023-12-09T09:40:15.044Z,6.40
2023-12-09T09:41:15.869Z,5.80
2023-12-09T09:42:16.712Z,6.10
2023-12-09T09:43:17.520Z,4.60
2023-12-09T09:44:18.345Z,4.40
2023-12-09T09:45:19.312Z,7.60
2023-12-09T09:46:20.134Z,8.80
2023-12-09T09:47:20.974Z,8.30
2023-12-09T09:48:21.927Z,8.40
2023-12-09T09:49:22.848Z,8.30
2023-12-09T09:50:23.764Z,6.10
2023-12-09T09:51:26.058Z,7.00
2023-12-09T09:52:25.254Z,5.40
2023-12-09T09:53:26.260Z,7.80
2023-12-09T09:54:26.581Z,4.50
2023-12-09T09:55:27.401Z,6.40
2023-12-09T09:56:28.228Z,7.20
2023-12-09T09:57:29.068Z,8.30
2023-12-09T09:58:29.928Z,7.00
2023-12-09T09:59:30.745Z,7.60
2023-12-09T10:00:31.672Z,9.50
2023-12-09T10:01:32.547Z,6.60
2023-12-09T10:02:33.338Z,5.50
2023-12-09T10:03:34.239Z,4.40
2023-12-09T10:04:35.150Z,3.90
2023-12-09T10:05:35.668Z,4.40
2023-12-09T10:06:36.515Z,3.60
2023-12-09T10:07:37.361Z,3.50
2023-12-09T10:08:38.163Z,2.70
2023-12-09T10:09:39.035Z,2.40
2023-12-09T10:10:39.850Z,2.90
2023-12-09T10:11:40.686Z,2.50
2023-12-09T10:12:41.611Z,2.20
2023-12-09T10:13:42.450Z,3.50
2023-12-09T10:14:43.271Z,2.80
2023-12-09T10:15:44.135Z,2.90
2023-12-09T10:16:44.926Z,4.70
2023-12-09T10:17:45.846Z,2.90
2023-12-09T10:18:46.713Z,2.30
2023-12-09T10:19:47.673Z,2.90
2023-12-09T10:20:51.004Z,2.90
2023-12-09T10:21:49.513Z,3.10
2023-12-09T10:22:50.331Z,3.30
2023-12-09T10:23:51.157Z,4.00
2023-12-09T10:24:52.005Z,4.40
2023-12-09T10:25:52.815Z,4.10
2023-12-09T10:26:53.635Z,4.50
2023-12-09T10:27:54.491Z,6.40
2023-12-09T10:28:55.315Z,8.10
2023-12-09T10:29:56.143Z,17.20
2023-12-09T10:30:56.967Z,15.60
2023-12-09T10:31:57.799Z,15.90
2023-12-09T10:32:58.738Z,17.10
2023-12-09T10:33:59.639Z,15.80
2023-12-09T10:35:03.669Z,18.90
2023-12-09T10:36:02.215Z,22.60
2023-12-09T10:37:02.009Z,20.80
2023-12-09T10:38:02.923Z,20.80
2023-12-09T10:39:03.814Z,23.40
2023-12-09T10:40:04.629Z,23.50
2023-12-09T10:41:05.451Z,12.10
2023-12-09T10:42:06.325Z,10.30
2023-12-09T10:43:07.105Z,7.50
2023-12-09T10:44:07.940Z,8.30
2023-12-09T10:45:08.779Z,6.90
2023-12-09T10:46:09.609Z,5.00
2023-12-09T10:47:10.452Z,5.30
2023-12-09T10:48:11.409Z,4.00
2023-12-09T10:49:11.823Z,4.50
2023-12-09T10:50:12.616Z,2.10
2023-12-09T10:51:13.499Z,3.80
2023-12-09T10:52:14.292Z,3.80
2023-12-09T10:53:15.112Z,7.10
2023-12-09T10:54:15.970Z,7.10
2023-12-09T10:55:16.776Z,5.70
2023-12-09T10:56:17.608Z,4.50
2023-12-09T10:57:18.472Z,4.90
2023-12-09T10:58:19.271Z,4.50
2023-12-09T10:59:20.098Z,3.80
2023-12-09T11:00:20.942Z,2.90
2023-12-09T11:01:21.783Z,3.20
2023-12-09T11:02:22.600Z,3.60
2023-12-09T11:03:23.515Z,2.30
2023-12-09T11:04:24.483Z,4.10
2023-12-09T11:05:24.940Z,3.00
2023-12-09T11:06:25.809Z,3.40
2023-12-09T11:07:26.599Z,5.50
2023-12-09T11:08:27.424Z,3.60
2023-12-09T11:09:28.304Z,4.70
2023-12-09T11:10:29.146Z,4.40
2023-12-09T11:11:29.961Z,3.40
2023-12-09T11:12:31.038Z,4.50
2023-12-09T11:13:31.460Z,4.20
2023-12-09T11:14:32.264Z,3.30
2023-12-09T11:15:33.163Z,3.70
2023-12-09T11:16:33.981Z,5.80
2023-12-09T11:17:35.115Z,3.40
2023-12-09T11:18:35.657Z,5.00
2023-12-09T11:19:36.584Z,4.80
2023-12-09T11:20:37.452Z,6.90
2023-12-09T11:21:38.360Z,6.80
2023-12-09T11:22:39.181Z,6.50
2023-12-09T11:23:42.043Z,6.40
2023-12-09T11:24:40.903Z,5.90
2023-12-09T11:25:41.792Z,6.50
2023-12-09T11:26:42.596Z,5.10
2023-12-09T11:27:43.405Z,5.30
2023-12-09T11:28:44.242Z,4.80
2023-12-09T11:29:45.070Z,5.50
2023-12-09T11:30:46.112Z,7.90
2023-12-09T11:31:46.605Z,7.20
2023-12-09T11:32:47.456Z,8.30
2023-12-09T11:33:48.321Z,6.50
2023-12-09T11:34:49.159Z,5.50
2023-12-09T11:35:49.976Z,6.10
2023-12-09T11:36:50.894Z,6.50
2023-12-09T11:37:51.694Z,6.10
2023-12-09T11:38:52.530Z,6.60
2023-12-09T11:39:53.368Z,6.90
2023-12-09T11:40:54.222Z,6.50
2023-12-09T11:41:55.030Z,7.90
2023-12-09T11:42:55.870Z,4.40
2023-12-09T11:43:56.682Z,5.40
2023-12-09T11:44:57.507Z,7.50
2023-12-09T11:45:58.329Z,8.30
2023-12-09T11:46:59.172Z,7.50
2023-12-09T11:48:00.100Z,7.40
2023-12-09T11:49:01.078Z,6.20
2023-12-09T11:50:01.923Z,4.40
2023-12-09T11:51:02.781Z,4.10
2023-12-09T11:52:03.592Z,4.00
2023-12-09T11:53:04.444Z,3.60
2023-12-09T11:54:05.287Z,2.40
2023-12-09T11:55:06.073Z,2.90
2023-12-09T11:56:06.894Z,5.30
2023-12-09T11:57:07.776Z,7.30
2023-12-09T11:58:08.575Z,13.60
2023-12-09T11:59:09.426Z,10.70
2023-12-09T12:00:10.260Z,8.00
2023-12-09T12:01:11.157Z,7.40
2023-12-09T12:02:12.026Z,9.90
2023-12-09T12:03:12.929Z,8.40
2023-12-09T12:04:13.812Z,6.00
2023-12-09T12:05:14.713Z,4.00
2023-12-09T12:06:15.542Z,3.10
2023-12-09T12:07:16.367Z,2.90
2023-12-09T12:08:17.199Z,4.00
2023-12-09T12:09:18.030Z,3.80
2023-12-09T12:10:18.862Z,3.70
2023-12-09T12:11:19.693Z,4.10
2023-12-09T12:12:20.538Z,4.50
2023-12-09T12:13:21.341Z,3.60
2023-12-09T12:14:22.190Z,3.30
2023-12-09T12:15:23.045Z,2.70
2023-12-09T12:16:23.870Z,2.40
2023-12-09T12:17:24.701Z,2.50
2023-12-09T12:18:25.719Z,3.70
2023-12-09T12:19:26.102Z,12.30
2023-12-09T12:20:26.905Z,18.50
2023-12-09T12:21:27.788Z,39.00
2023-12-09T12:22:28.861Z,26.60
2023-12-09T12:23:32.968Z,18.80
2023-12-09T12:24:30.140Z,14.00
2023-12-09T12:25:30.917Z,11.70
2023-12-09T12:26:31.778Z,6.20
2023-12-09T12:27:32.647Z,4.30
2023-12-09T12:28:33.427Z,2.50
2023-12-09T12:29:34.257Z,2.90
2023-12-09T12:30:35.120Z,1.80
2023-12-09T12:31:35.934Z,2.10
2023-12-09T12:32:36.797Z,2.00
2023-12-09T12:33:37.684Z,1.50
2023-12-09T12:34:38.130Z,2.50
2023-12-09T12:35:38.939Z,1.10
2023-12-09T12:36:39.780Z,1.30
2023-12-09T12:37:40.612Z,1.50
2023-12-09T12:38:41.423Z,1.40
2023-12-09T12:39:42.260Z,1.00
2023-12-09T12:40:43.089Z,1.50
2023-12-09T12:41:43.917Z,2.80
2023-12-09T12:42:44.766Z,3.40
2023-12-09T12:43:45.551Z,1.70
2023-12-09T12:44:46.375Z,1.50
2023-12-09T12:45:47.234Z,3.90
2023-12-09T12:46:48.039Z,2.70
2023-12-09T12:47:49.061Z,2.40
2023-12-09T12:48:49.582Z,2.60
2023-12-09T12:49:50.653Z,3.20
2023-12-09T12:50:51.010Z,2.90
2023-12-09T12:51:51.828Z,2.40
2023-12-09T12:52:52.677Z,1.80
2023-12-09T12:53:53.497Z,2.60
2023-12-09T12:54:54.318Z,1.30
2023-12-09T12:55:55.160Z,1.60
2023-12-09T12:56:55.979Z,1.30
2023-12-09T12:57:57.079Z,3.80
2023-12-09T12:58:57.374Z,4.00
2023-12-09T13:00:03.683Z,4.90
2023-12-09T13:01:00.126Z,4.90
2023-12-09T13:01:59.498Z,2.60
2023-12-09T13:03:00.375Z,2.80
2023-12-09T13:04:01.210Z,3.80
2023-12-09T13:05:02.018Z,2.70
2023-12-09T13:06:02.885Z,2.90
2023-12-09T13:07:03.825Z,1.50
2023-12-09T13:08:04.687Z,2.20
2023-12-09T13:09:05.600Z,1.80
2023-12-09T13:10:06.448Z,1.30
2023-12-09T13:11:07.308Z,2.40
2023-12-09T13:12:08.133Z,2.50
2023-12-09T13:13:08.936Z,1.80
2023-12-09T13:14:09.755Z,2.20
2023-12-09T13:15:10.632Z,2.20
2023-12-09T13:16:11.427Z,4.60
2023-12-09T13:17:12.261Z,4.10
2023-12-09T13:18:13.286Z,3.20
2023-12-09T13:19:13.728Z,3.80
2023-12-09T13:20:14.524Z,2.80
2023-12-09T13:21:15.425Z,2.70
2023-12-09T13:22:16.203Z,2.00
2023-12-09T13:23:17.100Z,2.70